Saint Francis, MN

11:32 PM CDT on April 24, 2017 (GMT -0500)
Oak Grove | | Change Station

Elev 873 ft 45.37 °N, 93.36 °W | Updated 2 minutes ago

Rain
Rain
60.0 °F
Feels Like 60.0 °F
N
0.0
Wind Variable Wind from WSW
Gusts 12.0 mph

Today
High -- | Low -- °F
--% Chance of Precip.
Yesterday
High -- | Low -- °F
Precip. -- in
Pressure 29.55 in
Visibility 10.0 miles
Clouds Scattered Clouds 6500 ft
Mostly Cloudy 7000 ft
Overcast 9000 ft
Dew Point 45 °F
Humidity 58%
Rainfall 0.00 in
Snow Depth Not available.
6:12 AM 8:11 PM
Waning Crescent, 3% visible
METAR KCBG 250415Z AUTO 22003KT 10SM -RA SCT065 BKN070 OVC090 17/06 A2955 RMK AO2
Pressure 29.55 in
Visibility 10.0 miles
Clouds Scattered Clouds 6500 ft
Mostly Cloudy 7000 ft
Overcast 9000 ft
Dew Point 45 °F
Humidity 58%
Rainfall 0.00 in
Snow Depth Not available.
6:12 AM 8:11 PM
Waning Crescent, 3% visible
METAR KCBG 250415Z AUTO 22003KT 10SM -RA SCT065 BKN070 OVC090 17/06 A2955 RMK AO2

Get Severe Weather Alerts

Thanks for signing up!

Be on the lookout for a verification email in your inbox.

You'll start receiving the daily forecast at 8 AM.

×

10-Day Weather Forecast

Almanac

Astronomy

Apr. 24, 2017 Rise Set
Actual Time
Civil Twilight
Nautical Twilight
Astronomical Twilight
Moon
Length of Visible Light
Length of Day
Tomorrow will be .
, % of the Moon is Illuminated

Today's Extremes

State Highs State Lows

Community

WunderPhotos

WunderBlog® & News

Nearby

Air Quality

  Air Quality AQ Index Pollutant
Not available.

Snow Depth

Station Depth Elevation

Earthquake Activity

City Distance Mag. Time & Date
Minimum magnitude displayed is 2.5.

Coastal Water Temperatures

Place Temperature

Stations

Nearby Weather Stations

Station Location Temp. Windchill Dew Point Humidity Wind Precip. Elev Updated Type
                   

Watches & Warnings

There are currently no watches in effect.